createdAt,value
2023-02-23T00:06:13.734Z,93504.47
2023-02-23T00:21:16.642Z,93502.94
2023-02-23T00:36:18.423Z,93511.41
2023-02-23T00:51:20.124Z,93506.81
2023-02-23T01:06:22.147Z,93502.25
2023-02-23T01:21:24.943Z,93501.91
2023-02-23T01:36:29.003Z,93503.09
2023-02-23T01:51:39.858Z,93488.56
2023-02-23T02:06:41.484Z,93485.88
2023-02-23T02:21:51.879Z,93477.06
2023-02-23T02:36:53.363Z,93489.72
2023-02-23T02:52:13.678Z,93483.94
2023-02-23T03:07:40.160Z,93482.84
2023-02-23T03:23:11.599Z,93488.25
2023-02-23T03:38:34.634Z,93497.13
2023-02-23T03:54:00.579Z,93507.88
2023-02-23T04:09:21.420Z,93510.91
2023-02-23T04:24:23.219Z,93505.19
2023-02-23T04:39:24.804Z,93511.72
2023-02-23T04:54:26.662Z,93513.63
2023-02-23T05:09:28.166Z,93512.88
2023-02-23T05:24:29.789Z,93520.13
2023-02-23T05:39:31.533Z,93540.06
2023-02-23T05:54:33.010Z,93551.28
2023-02-23T06:09:34.721Z,93565.75
2023-02-23T06:24:36.301Z,93575.63
2023-02-23T06:39:37.854Z,93585.91
2023-02-23T06:54:40.295Z,93586.13
2023-02-23T07:09:42.972Z,93589.50
2023-02-23T07:24:44.487Z,93596.31
2023-02-23T07:39:46.166Z,93578.69
2023-02-23T07:54:47.789Z,93578.63
2023-02-23T08:09:49.814Z,93588.47
2023-02-23T08:24:51.411Z,93583.47
2023-02-23T08:39:52.918Z,93588.69
2023-02-23T08:54:55.746Z,93579.81
2023-02-23T09:09:58.140Z,93580.50
2023-02-23T09:24:59.725Z,93571.63
2023-02-23T09:40:01.209Z,93581.19
2023-02-23T09:55:02.735Z,93574.56
2023-02-23T10:10:19.903Z,93564.16
2023-02-23T10:25:26.111Z,93552.94
2023-02-23T10:40:28.816Z,93534.06
2023-02-23T10:55:31.745Z,93516.38
2023-02-23T11:10:34.204Z,93500.16
2023-02-23T11:25:35.846Z,93494.28
2023-02-23T11:40:37.504Z,93486.91
2023-02-23T11:55:39.589Z,93471.44
2023-02-23T12:10:42.525Z,93468.59
2023-02-23T12:25:57.093Z,93458.25
2023-02-23T12:41:13.021Z,93454.31
2023-02-23T12:56:14.701Z,93443.56
2023-02-23T13:11:41.060Z,93439.63
2023-02-23T13:26:58.157Z,93436.50
2023-02-23T13:42:09.830Z,93439.63
2023-02-23T13:57:16.778Z,93441.47
2023-02-23T14:12:24.052Z,93443.41
2023-02-23T14:27:42.631Z,93435.31
2023-02-23T14:42:49.679Z,93431.38
2023-02-23T14:57:52.677Z,93414.66
2023-02-23T15:12:54.250Z,93436.75
2023-02-23T15:27:56.148Z,93445.25
2023-02-23T15:43:00.780Z,93471.09
2023-02-23T15:58:10.426Z,93492.28
2023-02-23T16:13:13.616Z,93496.91
2023-02-23T16:28:17.566Z,93508.81
2023-02-23T16:43:19.187Z,93509.66
2023-02-23T16:58:22.703Z,93516.13
2023-02-23T17:13:25.274Z,93535.78
2023-02-23T17:28:26.843Z,93541.56
2023-02-23T17:43:28.618Z,93538.63
2023-02-23T17:58:30.653Z,93529.47
2023-02-23T18:13:35.712Z,93537.09
2023-02-23T18:28:38.734Z,93547.16
2023-02-23T18:43:40.673Z,93559.47
2023-02-23T18:58:44.656Z,93585.25
2023-02-23T19:13:46.113Z,93597.94
2023-02-23T19:28:48.244Z,93624.47
2023-02-23T19:43:49.944Z,93643.63
2023-02-23T19:58:52.071Z,93638.66
2023-02-23T20:13:53.999Z,93643.69
2023-02-23T20:28:56.365Z,93642.88
2023-02-23T20:43:57.940Z,93635.69
2023-02-23T20:58:59.499Z,93646.78
2023-02-23T21:14:01.112Z,93637.28
2023-02-23T21:29:02.917Z,93636.50
2023-02-23T21:44:05.644Z,93651.06
2023-02-23T21:59:10.887Z,93645.41
2023-02-23T22:14:12.797Z,93640.03
2023-02-23T22:29:14.322Z,93640.03
2023-02-23T22:44:16.964Z,93644.63
2023-02-23T22:59:20.397Z,93652.34
2023-02-23T23:14:23.268Z,93649.66
2023-02-23T23:29:25.921Z,93652.00
2023-02-23T23:44:29.630Z,93643.59
2023-02-23T23:59:32.046Z,93640.50
